Time;durP1;ratioP1;P1;durP2;ratioP2;P2;SDS_P1;SDS_P2;PMS_P1;PMS_P2;Temp;Humidity;BMP_temperature;BMP_pressure;BME280_temperature;BME280_humidity;BME280_pressure;Samples;Min_cycle;Max_cycle;Signal;HPM_P1;HPM_P2
2021/11/02 00:00:58;;;;;;;1.20;1.20;;;6.20;99.90;;;;;;5109713;28;20439;-68
2021/11/02 00:03:24;;;;;;;1.83;1.30;;;5.60;99.90;;;;;;5101034;28;20548;-69
2021/11/02 00:05:50;;;;;;;;;;;6.00;99.90;;;;;;5099231;28;20107;-68
2021/11/02 00:08:16;;;;;;;1.30;1.20;;;6.30;99.90;;;;;;5098476;28;20368;-68
2021/11/02 00:10:42;;;;;;;1.17;1.17;;;5.80;99.90;;;;;;5098836;28;20097;-68
2021/11/02 00:13:08;;;;;;;;;;;5.80;99.90;;;;;;5098257;28;20062;-68
2021/11/02 00:15:36;;;;;;;1.10;1.10;;;5.90;99.90;;;;;;5098516;28;19943;-68
2021/11/02 00:18:05;;;;;;;2.03;1.30;;;6.10;99.90;;;;;;5098316;28;20077;-68
2021/11/02 00:20:31;;;;;;;6.50;1.33;;;5.60;99.90;;;;;;5098525;28;20020;-68
2021/11/02 00:22:59;;;;;;;4.97;1.35;;;5.70;99.90;;;;;;5098404;28;20148;-68
2021/11/02 00:25:27;;;;;;;1.40;1.30;;;5.60;99.90;;;;;;5098397;28;20020;-68
2021/11/02 00:27:54;;;;;;;1.40;1.30;;;5.70;99.90;;;;;;5098184;28;20155;-68
2021/11/02 00:30:22;;;;;;;2.22;1.35;;;5.60;99.90;;;;;;5098303;28;20016;-68
2021/11/02 00:32:51;;;;;;;1.60;1.50;;;5.80;99.90;;;;;;5098116;28;20025;-68
2021/11/02 00:35:19;;;;;;;1.35;1.25;;;5.70;99.90;;;;;;5098091;28;20123;-68
2021/11/02 00:37:45;;;;;;;1.40;1.30;;;4.80;99.90;;;;;;5097909;28;20081;-68
2021/11/02 00:40:13;;;;;;;2.28;1.40;;;5.60;99.90;;;;;;5098309;28;20507;-68
2021/11/02 00:42:42;;;;;;;5.03;1.60;;;5.90;99.90;;;;;;5098142;28;20423;-68
2021/11/02 00:45:12;;;;;;;2.85;1.73;;;5.70;99.90;;;;;;5098063;28;20026;-68
2021/11/02 00:47:39;;;;;;;2.25;1.20;;;5.50;99.90;;;;;;5098328;28;20028;-68
2021/11/02 00:50:11;;;;;;;1.50;1.40;;;5.60;99.90;;;;;;5097497;28;20024;-68
2021/11/02 00:52:40;;;;;;;3.17;1.48;;;5.60;99.90;;;;;;5097795;28;20077;-68
2021/11/02 00:55:07;;;;;;;4.63;1.48;;;5.40;99.90;;;;;;5097628;28;20035;-68
2021/11/02 00:57:33;;;;;;;1.55;1.45;;;5.40;99.90;;;;;;5096237;28;20044;-68
2021/11/02 00:59:59;;;;;;;1.63;1.52;;;5.50;99.90;;;;;;5098682;28;20107;-68
2021/11/02 01:02:25;;;;;;;;;;;5.50;99.90;;;;;;5109049;28;20392;-68
2021/11/02 01:04:51;;;;;;;8.25;1.98;;;5.20;99.90;;;;;;5097336;28;19911;-68
2021/11/02 01:07:17;;;;;;;2.47;2.00;;;5.40;99.90;;;;;;5097698;28;20016;-68
2021/11/02 01:09:44;;;;;;;2.42;2.10;;;5.50;99.90;;;;;;5097439;28;20028;-68
2021/11/02 01:12:11;;;;;;;1.90;1.80;;;5.30;99.90;;;;;;5097716;28;20027;-68
2021/11/02 01:14:38;;;;;;;2.75;2.08;;;5.40;99.90;;;;;;5097300;28;20081;-68
2021/11/02 01:17:05;;;;;;;6.72;2.38;;;5.70;99.90;;;;;;5097578;28;20012;-68
2021/11/02 01:19:31;;;;;;;5.80;2.78;;;5.20;99.90;;;;;;5095590;28;20036;-68
2021/11/02 01:21:57;;;;;;;2.38;2.08;;;5.70;99.90;;;;;;5097313;28;20099;-68
2021/11/02 01:24:22;;;;;;;;;;;6.00;99.90;;;;;;5097149;28;20392;-68
2021/11/02 01:26:49;;;;;;;2.35;2.00;;;5.70;99.90;;;;;;5096999;28;19908;-68
2021/11/02 01:29:18;;;;;;;4.95;2.70;;;5.70;99.90;;;;;;5095779;28;20072;-68
2021/11/02 01:31:44;;;;;;;2.63;1.85;;;6.00;99.90;;;;;;5096050;28;20392;-68
2021/11/02 01:34:11;;;;;;;3.58;2.28;;;6.00;99.90;;;;;;5096914;28;20396;-68
2021/11/02 01:36:38;;;;;;;4.50;1.98;;;5.90;99.90;;;;;;5097000;28;20115;-69
2021/11/02 01:39:06;;;;;;;5.13;2.30;;;6.10;99.90;;;;;;5096834;28;20296;-68
2021/11/02 01:41:33;;;;;;;5.38;2.28;;;5.90;99.90;;;;;;5097048;28;20062;-68
2021/11/02 01:43:59;;;;;;;3.13;1.85;;;6.10;99.90;;;;;;5096845;28;20028;-68
2021/11/02 01:46:28;;;;;;;3.58;2.25;;;6.40;99.90;;;;;;5097050;28;20023;-68
2021/11/02 01:48:56;;;;;;;5.35;2.13;;;6.10;99.90;;;;;;5096522;28;20020;-68
2021/11/02 01:51:27;;;;;;;3.67;2.10;;;5.90;99.90;;;;;;5096763;28;20036;-68
2021/11/02 01:53:53;;;;;;;3.67;1.90;;;6.20;99.90;;;;;;5096775;28;20016;-68
2021/11/02 01:56:20;;;;;;;;;;;6.00;99.90;;;;;;5097138;28;20052;-68
2021/11/02 01:58:52;;;;;;;4.10;2.00;;;6.10;99.90;;;;;;5096660;28;20404;-68
2021/11/02 02:01:24;;;;;;;3.58;2.13;;;5.90;99.90;;;;;;5109855;28;20024;-68
2021/11/02 02:04:06;;;;;;;2.95;2.30;;;5.70;99.90;;;;;;5096490;28;20049;-68
2021/11/02 02:06:43;;;;;;;2.10;1.83;;;5.80;99.90;;;;;;5096501;28;20549;-68
2021/11/02 02:09:21;;;;;;;4.45;2.17;;;5.80;99.90;;;;;;5096653;28;20032;-68
2021/11/02 02:11:58;;;;;;;4.07;1.90;;;6.20;99.90;;;;;;5096591;28;20064;-68
2021/11/02 02:14:58;;;;;;;4.07;2.00;;;5.70;99.90;;;;;;5096598;28;20020;-68
2021/11/02 02:17:33;;;;;;;4.25;2.22;;;5.80;99.90;;;;;;5096603;28;20068;-68
2021/11/02 02:20:05;;;;;;;6.63;2.22;;;5.50;99.90;;;;;;5096264;28;20024;-68
2021/11/02 02:22:53;;;;;;;6.20;1.75;;;5.80;99.90;;;;;;5096321;28;20093;-68
2021/11/02 02:25:30;;;;;;;2.60;2.20;;;6.00;99.90;;;;;;5096630;28;20023;-68
2021/11/02 02:28:08;;;;;;;5.18;2.00;;;4.90;99.90;;;;;;5096379;28;20027;-68
2021/11/02 02:30:39;;;;;;;3.47;2.95;;;5.50;99.90;;;;;;5096359;28;20047;-68
2021/11/02 02:33:06;;;;;;;3.42;1.85;;;5.70;99.90;;;;;;5096641;28;20081;-68
2021/11/02 02:35:34;;;;;;;4.10;2.00;;;5.70;99.90;;;;;;5095915;28;20028;-68
2021/11/02 02:38:02;;;;;;;3.42;2.03;;;5.30;99.90;;;;;;5099984;28;20293;-68
2021/11/02 02:40:28;;;;;;;1.80;1.70;;;5.60;99.90;;;;;;5100337;28;20020;-68
2021/11/02 02:42:56;;;;;;;3.13;2.17;;;5.30;99.90;;;;;;5100456;28;20020;-68
2021/11/02 02:45:23;;;;;;;4.82;2.10;;;5.50;99.90;;;;;;5100159;28;20036;-68
2021/11/02 02:47:50;;;;;;;3.05;1.73;;;5.60;99.90;;;;;;5100440;28;20077;-68
2021/11/02 02:50:20;;;;;;;4.70;2.05;;;5.50;99.90;;;;;;5099858;28;20032;-68
2021/11/02 02:52:46;;;;;;;2.05;1.85;;;5.40;99.90;;;;;;5100350;28;20024;-68
2021/11/02 02:55:16;;;;;;;2.92;2.45;;;5.30;99.90;;;;;;5099966;28;20047;-68
2021/11/02 02:57:44;;;;;;;3.25;2.38;;;5.40;99.90;;;;;;5099816;28;20094;-68
2021/11/02 03:00:11;;;;;;;4.70;2.15;;;5.40;99.90;;;;;;5103850;28;20024;-68
2021/11/02 03:02:39;;;;;;;2.35;1.90;;;5.40;99.90;;;;;;5109218;28;20015;-68
2021/11/02 03:05:07;;;;;;;3.53;1.80;;;5.30;99.90;;;;;;5099557;28;20031;-68
2021/11/02 03:07:34;;;;;;;3.92;2.38;;;5.30;99.90;;;;;;5099819;28;20016;-68
2021/11/02 03:10:00;;;;;;;2.72;1.73;;;5.30;99.90;;;;;;5099697;28;20450;-68
2021/11/02 03:12:30;;;;;;;4.82;2.00;;;5.10;99.90;;;;;;5099940;28;20020;-68
2021/11/02 03:15:16;;;;;;;1.95;1.65;;;5.30;99.90;;;;;;5099629;28;20016;-68
2021/11/02 03:17:52;;;;;;;2.08;1.90;;;5.40;99.90;;;;;;5099599;28;20024;-68
2021/11/02 03:45:11;;;;;;;4.30;1.60;;;5.40;99.90;;;;;;5099223;28;20084;-68
2021/11/02 04:34:24;;;;;;;2.45;2.10;;;5.30;99.90;;;;;;5098159;28;20066;-68
2021/11/02 04:37:26;;;;;;;2.20;2.00;;;5.10;99.90;;;;;;5098208;28;20036;-68
2021/11/02 04:45:58;;;;;;;2.77;2.47;;;5.00;99.90;;;;;;5098015;28;20027;-68
2021/11/02 05:13:02;;;;;;;2.40;2.20;;;5.40;99.90;;;;;;5097569;28;20133;-68
2021/11/02 05:57:11;;;;;;;3.33;1.92;;;4.40;99.90;;;;;;5096645;28;20044;-68
2021/11/02 05:59:43;;;;;;;;;;;5.30;99.90;;;;;;5097484;28;20035;-68
2021/11/02 06:07:35;;;;;;;;;;;5.60;99.90;;;;;;5097044;28;20103;-68
2021/11/02 06:10:50;;;;;;;4.40;1.83;;;5.00;99.90;;;;;;5086452;28;19911;-68
2021/11/02 06:30:11;;;;;;;1.60;1.50;;;4.80;99.90;;;;;;5096554;28;20054;-68
2021/11/02 06:32:42;;;;;;;1.73;1.63;;;4.70;99.90;;;;;;5095958;28;20095;-68
2021/11/02 06:35:16;;;;;;;4.63;1.50;;;5.00;99.90;;;;;;5096291;28;20480;-68
2021/11/02 07:17:22;;;;;;;1.20;1.20;;;5.00;99.90;;;;;;5096168;28;20019;-68
2021/11/02 07:25:17;;;;;;;1.50;1.40;;;5.30;99.90;;;;;;5099625;28;20106;-68
2021/11/02 07:28:12;;;;;;;3.85;1.30;;;5.30;99.90;;;;;;5098511;28;20027;-68
2021/11/02 08:47:09;;;;;;;1.13;1.08;;;7.90;99.90;;;;;;5098669;28;20027;-68
2021/11/02 08:49:41;;;;;;;1.30;1.20;;;8.20;99.90;;;;;;5098139;28;20036;-68
2021/11/02 08:52:07;;;;;;;2.40;1.23;;;8.10;99.90;;;;;;5096741;28;20024;-68
2021/11/02 08:54:36;;;;;;;;;;;8.60;99.90;;;;;;5098333;28;20032;-68
2021/11/02 08:57:03;;;;;;;1.33;1.30;;;8.60;99.90;;;;;;5097652;28;20352;-68
2021/11/02 08:59:33;;;;;;;2.47;1.30;;;8.50;99.90;;;;;;5097840;28;20032;-68
2021/11/02 09:02:01;;;;;;;1.50;1.40;;;8.60;99.90;;;;;;5096464;28;20024;-68
2021/11/02 09:04:32;;;;;;;3.50;1.20;;;8.90;99.90;;;;;;5097586;28;20380;-68
2021/11/02 09:07:03;;;;;;;1.17;1.13;;;9.00;99.90;;;;;;5097724;28;20468;-68
2021/11/02 09:09:42;;;;;;;3.60;1.00;;;9.30;99.90;;;;;;5096290;28;20377;-68
2021/11/02 09:12:09;;;;;;;3.47;1.45;;;9.50;99.90;;;;;;5097985;28;20059;-68
2021/11/02 09:14:38;;;;;;;3.20;1.30;;;9.90;99.90;;;;;;5096729;28;20024;-68
2021/11/02 09:17:06;;;;;;;1.83;1.10;;;10.00;99.90;;;;;;5096585;28;20047;-69
2021/11/02 09:19:37;;;;;;;1.92;1.30;;;10.10;99.90;;;;;;5097073;28;20032;-68
2021/11/02 09:22:05;;;;;;;2.42;1.17;;;10.20;99.90;;;;;;5096258;28;20024;-68
2021/11/02 09:24:31;;;;;;;1.23;1.05;;;10.30;99.90;;;;;;5097257;28;20391;-68
2021/11/02 09:26:58;;;;;;;1.58;1.48;;;10.10;99.90;;;;;;5097384;28;20016;-68
2021/11/02 09:29:25;;;;;;;2.05;1.10;;;10.20;99.90;;;;;;5096047;28;20024;-68
2021/11/02 09:31:56;;;;;;;4.22;1.95;;;10.30;99.90;;;;;;5095932;28;20024;-68
2021/11/02 09:34:23;;;;;;;4.95;2.70;;;10.40;99.90;;;;;;5095501;28;20028;-68
2021/11/02 09:37:14;;;;;;;2.88;2.08;;;10.30;99.90;;;;;;5095803;28;20441;-68
2021/11/02 09:39:51;;;;;;;3.13;2.20;;;10.50;99.90;;;;;;5095746;28;20028;-68
2021/11/02 09:42:36;;;;;;;3.50;2.47;;;10.70;99.90;;;;;;5097057;28;20016;-68
2021/11/02 09:45:21;;;;;;;7.35;2.92;;;10.80;99.90;;;;;;5095902;28;20115;-68
2021/11/02 09:48:24;;;;;;;5.47;2.67;;;11.10;99.90;;;;;;5095383;28;20110;-69
2021/11/02 09:51:10;;;;;;;6.32;2.55;;;11.40;99.90;;;;;;5096987;28;20028;-68
2021/11/02 09:54:17;;;;;;;3.08;2.25;;;11.50;99.90;;;;;;5095475;28;20021;-68
2021/11/02 09:56:47;;;;;;;5.15;2.90;;;11.90;99.90;;;;;;5058658;28;20539;-68
2021/11/02 09:59:20;;;;;;;3.78;2.90;;;12.20;99.90;;;;;;5096980;28;20476;-68
2021/11/02 10:02:06;;;;;;;4.50;2.28;;;12.40;99.90;;;;;;5109631;28;20028;-68
2021/11/02 10:04:44;;;;;;;13.95;3.20;;;12.60;99.90;;;;;;5096575;28;20020;-69
2021/11/02 10:07:15;;;;;;;4.80;1.70;;;12.70;99.90;;;;;;5096641;28;20484;-69
2021/11/02 10:09:59;;;;;;;2.35;1.77;;;12.80;99.90;;;;;;5095268;28;20028;-68
2021/11/02 10:12:58;;;;;;;5.53;2.60;;;12.60;99.90;;;;;;5096771;28;20032;-68
2021/11/02 10:15:40;;;;;;;4.50;1.60;;;12.30;99.90;;;;;;5061539;28;20036;-68
2021/11/02 10:18:38;;;;;;;1.65;1.20;;;12.10;99.90;;;;;;5096501;28;20035;-68
2021/11/02 10:21:38;;;;;;;2.67;1.10;;;12.10;99.90;;;;;;5056640;28;20028;-69
2021/11/02 10:24:35;;;;;;;1.45;1.35;;;12.20;99.90;;;;;;5096950;28;20054;-69
2021/11/02 10:27:23;;;;;;;2.25;1.42;;;12.60;99.90;;;;;;5096789;28;20020;-69
2021/11/02 10:30:13;;;;;;;2.70;1.20;;;13.30;99.90;;;;;;5096610;28;20043;-69
2021/11/02 10:32:44;;;;;;;2.83;1.23;;;13.30;99.90;;;;;;5095934;28;20043;-69
2021/11/02 10:35:34;;;;;;;2.63;1.20;;;13.90;99.90;;;;;;5096770;28;20036;-68
2021/11/02 10:38:10;;;;;;;3.70;1.48;;;13.70;99.90;;;;;;5096461;28;20021;-69
2021/11/02 10:40:43;;;;;;;1.20;1.10;;;13.70;99.90;;;;;;5096522;28;20024;-68
2021/11/02 10:43:38;;;;;;;5.45;1.70;;;13.70;99.90;;;;;;5096570;28;20118;-68
2021/11/02 10:46:10;;;;;;;4.47;1.65;;;13.20;99.90;;;;;;5096653;28;20384;-68
2021/11/02 10:48:50;;;;;;;2.53;1.77;;;13.20;99.90;;;;;;5095281;28;20031;-69
2021/11/02 10:51:36;;;;;;;2.78;1.52;;;12.90;99.90;;;;;;5096345;28;20028;-69
2021/11/02 10:54:10;;;;;;;4.95;1.92;;;12.90;99.90;;;;;;5096424;28;20050;-69
2021/11/02 10:57:08;;;;;;;3.08;2.00;;;13.10;99.90;;;;;;5096319;28;20048;-68
2021/11/02 10:59:41;;;;;;;4.35;1.85;;;13.40;99.90;;;;;;5100395;28;20024;-69
2021/11/02 11:02:27;;;;;;;3.17;2.00;;;13.20;99.90;;;;;;5098904;28;20032;-69
2021/11/02 11:04:58;;;;;;;8.15;2.63;;;13.30;99.90;;;;;;5099739;28;20023;-69
2021/11/02 11:07:42;;;;;;;4.55;2.42;;;13.40;99.90;;;;;;5098901;28;20024;-69
2021/11/02 11:10:15;;;;;;;7.82;2.83;;;13.30;99.90;;;;;;5100279;28;20023;-69
2021/11/02 11:12:56;;;;;;;4.80;2.40;;;13.40;99.90;;;;;;5099922;28;20051;-68
2021/11/02 11:15:35;;;;;;;6.72;2.95;;;13.30;99.90;;;;;;5100082;28;20072;-69
2021/11/02 11:18:04;;;;;;;4.35;1.90;;;13.10;99.90;;;;;;5099356;28;20523;-69
2021/11/02 11:20:33;;;;;;;5.60;2.17;;;13.40;99.90;;;;;;5099808;28;20054;-68
2021/11/02 11:23:03;;;;;;;3.80;2.08;;;13.20;99.90;;;;;;5099470;28;20267;-69
2021/11/02 11:25:40;;;;;;;3.17;1.75;;;13.20;99.90;;;;;;5099760;28;20025;-68
2021/11/02 11:28:14;;;;;;;4.15;2.28;;;13.10;99.90;;;;;;5099978;28;20480;-69
2021/11/02 11:30:41;;;;;;;4.20;1.70;;;12.90;99.90;;;;;;5099556;28;20020;-69
2021/11/02 11:33:11;;;;;;;3.17;1.58;;;13.10;99.90;;;;;;5099539;28;20119;-68
2021/11/02 11:35:40;;;;;;;3.42;1.50;;;12.70;99.90;;;;;;5099526;28;20026;-69
2021/11/02 11:38:08;;;;;;;4.22;1.50;;;12.60;99.90;;;;;;5099649;28;20035;-69
2021/11/02 11:40:36;;;;;;;6.85;1.85;;;12.50;99.90;;;;;;5098070;28;20031;-68
2021/11/02 11:43:09;;;;;;;2.03;1.30;;;12.30;99.90;;;;;;5099535;28;20016;-68
2021/11/02 11:45:38;;;;;;;2.10;1.20;;;12.10;99.90;;;;;;5098085;28;20118;-68
2021/11/02 11:48:21;;;;;;;2.15;1.27;;;12.20;99.90;;;;;;5099328;28;20115;-68
2021/11/02 11:50:48;;;;;;;2.80;1.27;;;12.20;99.90;;;;;;5099350;28;20369;-69
2021/11/02 11:53:21;;;;;;;3.55;1.70;;;12.10;99.90;;;;;;5098951;28;20107;-68
2021/11/02 11:55:51;;;;;;;4.10;1.20;;;12.00;99.90;;;;;;5099008;28;20107;-68
2021/11/02 11:58:23;;;;;;;2.00;1.38;;;12.10;99.90;;;;;;5098865;28;20392;-69
2021/11/02 12:00:51;;;;;;;1.88;1.40;;;12.10;99.90;;;;;;5108639;28;20106;-69
2021/11/02 12:03:20;;;;;;;2.20;1.02;;;12.30;99.90;;;;;;5101862;28;20365;-68
2021/11/02 12:06:09;;;;;;;1.88;1.05;;;12.20;99.90;;;;;;5099098;28;20016;-68
2021/11/02 12:09:08;;;;;;;4.53;1.70;;;12.30;99.90;;;;;;5098571;28;20035;-68
2021/11/02 12:11:35;;;;;;;4.03;1.20;;;12.20;99.90;;;;;;5099008;28;20027;-68
2021/11/02 12:14:08;;;;;;;1.48;1.10;;;12.40;99.90;;;;;;5098813;28;20028;-68
2021/11/02 12:16:41;;;;;;;1.08;0.95;;;12.40;99.90;;;;;;5098786;28;20020;-69
2021/11/02 12:19:15;;;;;;;2.55;1.38;;;12.50;99.90;;;;;;5098563;28;20028;-68
2021/11/02 12:21:43;;;;;;;3.92;1.13;;;12.40;99.90;;;;;;5098520;28;20024;-68
2021/11/02 12:24:15;;;;;;;1.95;1.30;;;12.30;99.90;;;;;;5098579;28;20119;-69
2021/11/02 12:26:49;;;;;;;2.95;1.20;;;12.40;99.90;;;;;;5098646;28;20016;-68
2021/11/02 12:29:27;;;;;;;5.18;1.60;;;12.40;99.90;;;;;;5098408;28;20055;-68
2021/11/02 12:32:04;;;;;;;5.25;1.60;;;12.50;99.90;;;;;;5098427;28;20431;-68
2021/11/02 12:34:46;;;;;;;2.00;1.40;;;12.10;99.90;;;;;;5096973;28;20036;-69
2021/11/02 12:37:14;;;;;;;1.20;1.10;;;12.30;99.90;;;;;;5096225;28;20028;-68
2021/11/02 12:39:41;;;;;;;7.95;2.03;;;12.30;99.90;;;;;;5098375;28;20028;-69
2021/11/02 12:42:07;;;;;;;1.92;1.30;;;12.40;99.90;;;;;;5098170;28;20125;-68
2021/11/02 12:44:35;;;;;;;2.08;1.15;;;12.30;99.90;;;;;;5098338;28;20380;-68
2021/11/02 12:47:06;;;;;;;7.00;1.30;;;12.20;99.90;;;;;;5096699;28;20387;-69
2021/11/02 12:49:54;;;;;;;1.33;1.10;;;12.30;99.90;;;;;;5098016;28;20052;-68
2021/11/02 12:52:26;;;;;;;2.95;1.02;;;12.30;99.90;;;;;;5096902;28;20024;-68
2021/11/02 12:55:15;;;;;;;2.25;1.00;;;12.20;99.90;;;;;;5096449;28;20165;-68
2021/11/02 12:57:44;;;;;;;3.25;1.30;;;12.10;99.90;;;;;;5096347;28;20052;-68
2021/11/02 13:00:27;;;;;;;2.83;1.38;;;12.00;99.90;;;;;;5101860;28;20047;-68
2021/11/02 13:03:02;;;;;;;3.78;1.15;;;12.20;99.90;;;;;;5102854;28;20441;-68
2021/11/02 13:05:29;;;;;;;2.15;1.08;;;12.10;99.90;;;;;;5096685;28;20349;-68
2021/11/02 13:08:07;;;;;;;6.07;1.50;;;12.00;99.90;;;;;;5097605;28;20027;-68
2021/11/02 13:10:34;;;;;;;3.92;1.52;;;12.00;99.90;;;;;;5098121;28;20353;-68
2021/11/02 13:13:10;;;;;;;2.72;1.60;;;12.00;99.90;;;;;;5097570;28;20022;-68
2021/11/02 13:15:49;;;;;;;3.80;2.45;;;11.90;99.90;;;;;;5096409;28;20158;-68
2021/11/02 13:18:27;;;;;;;1.88;1.55;;;12.10;99.90;;;;;;5095772;28;20107;-68
2021/11/02 13:20:58;;;;;;;4.63;1.80;;;12.00;99.90;;;;;;5097399;28;20434;-68
2021/11/02 13:23:37;;;;;;;3.60;1.73;;;11.60;99.90;;;;;;5096394;28;20458;-68
2021/11/02 13:26:18;;;;;;;1.88;1.40;;;11.40;99.90;;;;;;5096224;28;20399;-68
2021/11/02 13:28:44;;;;;;;4.90;1.33;;;11.90;99.90;;;;;;5097469;28;20133;-68
2021/11/02 13:31:49;;;;;;;2.13;1.38;;;11.40;99.90;;;;;;5097242;28;20052;-68
2021/11/02 13:34:35;;;;;;;5.30;1.60;;;11.40;99.90;;;;;;5034766;28;20025;-68
2021/11/02 13:37:05;;;;;;;4.07;1.48;;;11.50;99.90;;;;;;5018154;28;20374;-68
2021/11/02 13:39:50;;;;;;;2.50;1.35;;;11.40;99.90;;;;;;5061980;28;20028;-68
2021/11/02 13:42:16;;;;;;;2.60;1.35;;;11.40;99.90;;;;;;5097303;28;20048;-68
2021/11/02 13:44:45;;;;;;;1.65;1.33;;;11.20;99.90;;;;;;5096074;28;20078;-68
2021/11/02 13:47:11;;;;;;;2.80;1.20;;;11.10;99.90;;;;;;5095541;28;20051;-68
2021/11/02 13:49:38;;;;;;;2.60;1.23;;;11.20;99.90;;;;;;5095972;28;20026;-68
2021/11/02 13:52:04;;;;;;;3.97;1.05;;;11.30;99.90;;;;;;5096849;28;20495;-68
2021/11/02 13:54:30;;;;;;;11.18;2.95;;;11.30;99.90;;;;;;5095976;28;20020;-68
2021/11/02 13:56:56;;;;;;;3.42;1.35;;;11.20;99.90;;;;;;5096801;28;20089;-68
2021/11/02 13:59:23;;;;;;;4.85;1.10;;;11.30;99.90;;;;;;5096771;28;20052;-68
2021/11/02 14:01:55;;;;;;;4.90;1.50;;;11.40;99.90;;;;;;5109480;28;20046;-69
2021/11/02 14:04:41;;;;;;;2.95;1.60;;;10.80;99.90;;;;;;5096644;28;20012;-68
2021/11/02 14:07:25;;;;;;;1.77;1.63;;;11.40;99.90;;;;;;5095656;28;20031;-69
2021/11/02 14:09:55;;;;;;;5.53;1.70;;;11.30;99.90;;;;;;5096632;28;20020;-68
2021/11/02 14:12:32;;;;;;;3.40;1.50;;;11.00;99.90;;;;;;5097018;28;20069;-68
2021/11/02 14:15:09;;;;;;;3.05;1.85;;;11.10;99.90;;;;;;5096620;28;20020;-68
2021/11/02 14:17:36;;;;;;;1.20;1.10;;;11.40;99.90;;;;;;5096673;28;20454;-68
2021/11/02 14:20:03;;;;;;;2.72;1.58;;;11.40;99.90;;;;;;5096642;28;21987;-68
2021/11/02 14:22:49;;;;;;;2.10;1.27;;;11.30;99.90;;;;;;5096523;28;20396;-68
2021/11/02 14:25:22;;;;;;;4.43;1.67;;;11.50;99.90;;;;;;5095320;28;20505;-68
2021/11/02 14:27:52;;;;;;;1.50;1.20;;;11.30;99.90;;;;;;5096562;28;20031;-68
2021/11/02 14:30:23;;;;;;;1.98;1.13;;;11.50;99.90;;;;;;5096612;28;20020;-68
2021/11/02 14:32:50;;;;;;;3.78;1.48;;;11.50;99.90;;;;;;5097939;28;20528;-68
2021/11/02 14:35:46;;;;;;;2.50;1.67;;;11.40;99.90;;;;;;5100762;28;20153;-68
2021/11/02 14:38:19;;;;;;;3.72;1.67;;;11.60;99.90;;;;;;5100730;28;20020;-68
2021/11/02 14:40:56;;;;;;;2.65;1.55;;;11.40;99.90;;;;;;5100475;28;20013;-68
2021/11/02 14:43:25;;;;;;;3.13;1.30;;;11.40;99.90;;;;;;5100622;28;20028;-69
2021/11/02 14:46:04;;;;;;;5.38;1.98;;;11.40;99.90;;;;;;5099559;28;20109;-68
2021/11/02 14:48:37;;;;;;;2.13;1.38;;;11.50;99.90;;;;;;5100079;28;20028;-68
2021/11/02 14:51:22;;;;;;;1.85;1.42;;;11.40;99.90;;;;;;5099424;28;20016;-68
2021/11/02 14:53:51;;;;;;;5.32;1.73;;;11.30;99.90;;;;;;5098727;28;20480;-68
2021/11/02 14:56:32;;;;;;;1.80;1.13;;;11.30;99.90;;;;;;5098941;28;20040;-68
2021/11/02 14:59:03;;;;;;;1.63;1.10;;;11.10;99.90;;;;;;5100284;28;20573;-68
2021/11/02 15:01:39;;;;;;;1.00;0.90;;;11.00;99.90;;;;;;5098617;28;20077;-68
2021/11/02 15:04:14;;;;;;;1.98;1.20;;;11.30;99.90;;;;;;5100204;28;20054;-68
2021/11/02 15:06:41;;;;;;;1.20;1.10;;;11.20;99.90;;;;;;5098632;28;20043;-68
2021/11/02 15:09:13;;;;;;;3.47;1.33;;;11.40;99.90;;;;;;5100338;28;20473;-68
2021/11/02 15:11:40;;;;;;;1.10;1.00;;;11.20;99.90;;;;;;5099965;28;20048;-68
2021/11/02 15:14:12;;;;;;;2.55;1.00;;;11.30;99.90;;;;;;5100127;28;20032;-68
2021/11/02 15:17:00;;;;;;;1.27;1.02;;;11.30;99.90;;;;;;5099955;28;20504;-68
2021/11/02 15:19:28;;;;;;;2.28;1.85;;;11.10;99.90;;;;;;5099713;28;20368;-68
2021/11/02 15:21:58;;;;;;;1.40;0.90;;;11.00;99.90;;;;;;5098362;28;20091;-68
2021/11/02 15:24:30;;;;;;;1.75;1.02;;;11.00;99.90;;;;;;5099731;28;20430;-68
2021/11/02 15:26:58;;;;;;;5.03;1.20;;;10.90;99.90;;;;;;5099786;28;20016;-68
2021/11/02 15:29:26;;;;;;;1.77;1.00;;;11.10;99.90;;;;;;5078050;28;20025;-68
2021/11/02 15:32:11;;;;;;;2.03;1.10;;;11.00;99.90;;;;;;5091510;28;20028;-68
2021/11/02 15:34:55;;;;;;;1.10;1.00;;;11.10;99.90;;;;;;5099618;28;20028;-68
2021/11/02 15:37:34;;;;;;;1.42;0.85;;;11.00;99.90;;;;;;5098275;28;20589;-69
2021/11/02 15:40:11;;;;;;;35.13;27.80;;;11.00;99.90;;;;;;5099402;28;20089;-68
2021/11/02 15:42:49;;;;;;;106.35;66.38;;;11.00;99.90;;;;;;5099610;28;20488;-68
2021/11/02 15:45:35;;;;;;;21.15;13.98;;;10.90;99.90;;;;;;5098122;28;20028;-68
2021/11/02 15:48:04;;;;;;;10.05;4.57;;;11.00;99.90;;;;;;5099033;28;20028;-68
2021/11/02 15:50:30;;;;;;;4.93;3.33;;;10.80;99.90;;;;;;5099034;28;20480;-68
2021/11/02 15:52:57;;;;;;;7.97;2.22;;;10.60;99.90;;;;;;5099328;28;20016;-68
2021/11/02 15:55:25;;;;;;;6.53;2.40;;;10.60;99.90;;;;;;5099097;28;20097;-68
2021/11/02 15:57:59;;;;;;;5.65;1.83;;;10.60;99.90;;;;;;5097478;28;20043;-67
2021/11/02 16:00:28;;;;;;;3.35;1.50;;;10.50;99.90;;;;;;5099980;28;20027;-68
2021/11/02 16:02:55;;;;;;;2.13;1.60;;;10.50;99.90;;;;;;5098820;28;20096;-68
2021/11/02 16:05:26;;;;;;;4.47;1.48;;;10.40;99.90;;;;;;5099070;28;20024;-68
2021/11/02 16:08:00;;;;;;;1.90;1.50;;;10.40;99.90;;;;;;5098840;28;20024;-68
2021/11/02 16:10:28;;;;;;;3.72;1.60;;;10.40;99.90;;;;;;5099010;28;20028;-67
2021/11/02 16:12:55;;;;;;;10.15;1.75;;;10.40;99.90;;;;;;5097440;28;20361;-68
2021/11/02 16:15:28;;;;;;;4.57;1.55;;;10.40;99.90;;;;;;5098731;28;20077;-68
2021/11/02 16:18:00;;;;;;;1.75;1.45;;;10.10;99.90;;;;;;5098349;28;20024;-68
2021/11/02 16:20:27;;;;;;;2.10;1.50;;;10.10;99.90;;;;;;5097542;28;20050;-68
2021/11/02 16:23:07;;;;;;;1.92;1.48;;;10.10;99.90;;;;;;5098463;28;20024;-68
2021/11/02 16:25:38;;;;;;;1.48;1.13;;;10.00;99.90;;;;;;5097407;28;20020;-68
2021/11/02 16:28:08;;;;;;;1.80;1.63;;;10.00;99.90;;;;;;5098827;28;20027;-68
2021/11/02 16:30:40;;;;;;;2.35;1.55;;;10.00;99.90;;;;;;5098574;28;20016;-68
2021/11/02 16:33:07;;;;;;;9.27;2.42;;;10.10;99.90;;;;;;5098367;28;20028;-68
2021/11/02 16:35:40;;;;;;;5.38;2.53;;;10.00;99.90;;;;;;5098832;28;20015;-68
2021/11/02 16:38:21;;;;;;;3.10;2.80;;;10.00;99.90;;;;;;5098535;28;20026;-68
2021/11/02 16:40:51;;;;;;;3.38;2.35;;;9.60;99.90;;;;;;5097881;28;20070;-68
2021/11/02 16:43:28;;;;;;;3.28;2.60;;;10.00;99.90;;;;;;5097155;28;20028;-68
2021/11/02 16:45:55;;;;;;;4.25;3.08;;;9.80;99.90;;;;;;5087964;28;20384;-68
2021/11/02 16:48:33;;;;;;;5.38;3.00;;;9.80;99.90;;;;;;5098263;28;20445;-68
2021/11/02 16:50:59;;;;;;;8.35;3.88;;;9.80;99.90;;;;;;5098189;28;20028;-68
2021/11/02 16:53:25;;;;;;;3.97;3.17;;;9.80;99.90;;;;;;5100718;28;20086;-69
2021/11/02 16:55:52;;;;;;;20.17;9.75;;;9.60;99.90;;;;;;5097410;28;20056;-68
2021/11/02 16:58:18;;;;;;;9.52;6.05;;;9.50;99.90;;;;;;5097500;28;20393;-68
2021/11/02 17:00:45;;;;;;;82.05;33.58;;;9.80;99.90;;;;;;5104934;28;20057;-68
2021/11/02 17:03:14;;;;;;;256.85;135.60;;;9.60;99.90;;;;;;5100406;28;20031;-68
2021/11/02 17:05:40;;;;;;;58.35;36.95;;;9.70;99.90;;;;;;5107869;28;20051;-68
2021/11/02 17:08:09;;;;;;;13.57;7.35;;;9.40;99.90;;;;;;5097308;28;20024;-68
2021/11/02 17:10:41;;;;;;;9.98;5.72;;;9.50;99.90;;;;;;5097759;28;20028;-68
2021/11/02 17:13:28;;;;;;;6.75;4.72;;;9.60;99.90;;;;;;5096297;28;20020;-68
2021/11/02 17:15:59;;;;;;;4.90;3.65;;;9.50;99.90;;;;;;5095559;28;20073;-67
2021/11/02 17:18:44;;;;;;;3.83;3.38;;;9.70;99.90;;;;;;5095882;28;20028;-68
2021/11/02 17:21:13;;;;;;;11.20;3.13;;;9.60;99.90;;;;;;5095958;28;20484;-68
2021/11/02 17:23:42;;;;;;;5.85;3.03;;;9.40;99.90;;;;;;5096966;28;20020;-68
2021/11/02 17:26:10;;;;;;;3.47;2.33;;;9.20;99.90;;;;;;5097492;28;20016;-68
2021/11/02 17:28:37;;;;;;;5.40;2.58;;;9.30;99.90;;;;;;5097478;28;20073;-68
2021/11/02 17:31:08;;;;;;;2.42;1.92;;;9.30;99.90;;;;;;5095554;28;20442;-68
2021/11/02 17:33:35;;;;;;;3.75;2.13;;;9.40;99.90;;;;;;5097290;28;20111;-68
2021/11/02 17:36:08;;;;;;;7.18;2.95;;;9.50;99.90;;;;;;5096140;28;20032;-68
2021/11/02 17:38:36;;;;;;;3.17;2.55;;;9.30;99.90;;;;;;5096676;28;20052;-70
2021/11/02 17:41:04;;;;;;;2.35;2.15;;;9.50;99.90;;;;;;5090040;28;20029;-70
2021/11/02 17:43:32;;;;;;;6.40;3.60;;;9.10;99.90;;;;;;5091168;28;20095;-68
2021/11/02 17:45:58;;;;;;;2.75;2.50;;;9.40;99.90;;;;;;5096517;28;20028;-68
2021/11/02 17:48:25;;;;;;;5.22;3.55;;;9.20;99.90;;;;;;5096638;28;20055;-68
2021/11/02 17:50:52;;;;;;;6.10;3.38;;;9.30;99.90;;;;;;5096982;28;20028;-70
2021/11/02 17:53:19;;;;;;;4.05;3.40;;;9.00;99.90;;;;;;5096301;28;20024;-68
2021/11/02 17:55:45;;;;;;;4.13;3.72;;;9.40;99.90;;;;;;5096918;28;20028;-68
2021/11/02 17:58:12;;;;;;;6.93;4.65;;;9.10;99.90;;;;;;5095599;28;20105;-68
2021/11/02 18:00:38;;;;;;;5.80;4.28;;;9.30;99.90;;;;;;5103302;28;20522;-68
2021/11/02 18:03:07;;;;;;;8.25;7.43;;;9.20;99.90;;;;;;5101064;28;20032;-68
2021/11/02 18:05:34;;;;;;;9.60;7.80;;;9.10;99.90;;;;;;5095734;28;20020;-68
2021/11/02 18:08:00;;;;;;;9.10;6.65;;;9.10;99.90;;;;;;5094396;28;20020;-68
2021/11/02 18:10:28;;;;;;;6.25;5.13;;;9.30;99.90;;;;;;5096625;28;20028;-68